Back to Top

Language: 

My Weather Underground Personal Weather Station Historical Data with Graphs...

Delerius Weather Station Historical Data
Daily Summary for July 16, 2017 Units:  English    Metric   Both
« Previous Day
Next Day »
Daily Weekly Monthly Yearly Custom
  High: Low: Average:
Temperature: 73.9 °F 55.9 °F 66.3 °F
Dew Point: 62.4 °F 49.4 °F 56.4 °F
Humidity: 91 % 47 % 72 %
Wind Speed: 14.0 mph 3.0 mph 8.5 mph
Wind Gust: 24.0 mph - -
Wind:- - WNW
Pressure: 30.23 in 30.03 in -
Precipitation: 0.00 in    
Historical Graphs
 
 
Tabular Data for July 16, 2017
Time Temperature Dew Point Pressure Wind Wind Speed Wind Gust Humidity Rainfall Rate (Hourly) solar Conditions
00:02 66.9 °F 62.3 °F 30.03 in WSW 12.0 mph 21.0 mph 85 % 0.00 in 0 W/m2
00:07 66.7 °F 62.1 °F 30.03 in West 12.0 mph 20.0 mph 85 % 0.00 in 0 W/m2
00:12 66.9 °F 62.3 °F 30.04 in West 12.0 mph 24.0 mph 85 % 0.00 in 0 W/m2
00:18 66.9 °F 62.3 °F 30.04 in West 12.0 mph 24.0 mph 85 % 0.00 in 0 W/m2
00:23 66.9 °F 62.3 °F 30.04 in West 11.0 mph 24.0 mph 85 % 0.00 in 0 W/m2
00:28 66.9 °F 62.3 °F 30.04 in West 13.0 mph 24.0 mph 85 % 0.00 in 0 W/m2
00:33 67.1 °F 62.4 °F 30.04 in West 14.0 mph 22.0 mph 85 % 0.00 in 0 W/m2
00:38 66.9 °F 62.3 °F 30.05 in West 12.0 mph 21.0 mph 85 % 0.00 in 0 W/m2
00:43 67.1 °F 62.4 °F 30.05 in West 11.0 mph 22.0 mph 85 % 0.00 in 0 W/m2
00:48 67.1 °F 62.4 °F 30.05 in West 11.0 mph 22.0 mph 85 % 0.00 in 0 W/m2
00:53 67.1 °F 62.1 °F 30.05 in West 11.0 mph 19.0 mph 84 % 0.00 in 0 W/m2
00:58 67.1 °F 62.4 °F 30.05 in West 11.0 mph 19.0 mph 85 % 0.00 in 0 W/m2
01:03 66.9 °F 62.3 °F 30.05 in West 11.0 mph 20.0 mph 85 % 0.00 in 0 W/m2
01:08 66.9 °F 62.3 °F 30.05 in West 12.0 mph 20.0 mph 85 % 0.00 in 0 W/m2
01:13 66.7 °F 62.1 °F 30.05 in West 10.0 mph 19.0 mph 85 % 0.00 in 0 W/m2
01:18 66.6 °F 61.9 °F 30.04 in West 11.0 mph 19.0 mph 85 % 0.00 in 0 W/m2
01:23 66.4 °F 62.1 °F 30.05 in West 10.0 mph 20.0 mph 86 % 0.00 in 0 W/m2
01:28 66.4 °F 62.1 °F 30.05 in West 11.0 mph 20.0 mph 86 % 0.00 in 0 W/m2
01:33 66.2 °F 61.9 °F 30.05 in West 11.0 mph 20.0 mph 86 % 0.00 in 0 W/m2
01:38 66.2 °F 61.9 °F 30.05 in West 11.0 mph 23.0 mph 86 % 0.00 in 0 W/m2
01:43 66.4 °F 62.1 °F 30.05 in West 11.0 mph 23.0 mph 86 % 0.00 in 0 W/m2
01:48 66.4 °F 62.1 °F 30.05 in West 10.0 mph 19.0 mph 86 % 0.00 in 0 W/m2
01:53 66.2 °F 61.9 °F 30.05 in West 9.0 mph 18.0 mph 86 % 0.00 in 0 W/m2
01:58 66.2 °F 61.9 °F 30.06 in West 8.0 mph 18.0 mph 86 % 0.00 in 0 W/m2
02:03 66.2 °F 61.9 °F 30.06 in West 8.0 mph 14.0 mph 86 % 0.00 in 0 W/m2
02:08 66.0 °F 61.7 °F 30.06 in West 7.0 mph 14.0 mph 86 % 0.00 in 0 W/m2
02:13 66.0 °F 61.7 °F 30.06 in West 8.0 mph 15.0 mph 86 % 0.00 in 0 W/m2
02:18 66.0 °F 61.7 °F 30.06 in West 8.0 mph 15.0 mph 86 % 0.00 in 0 W/m2
02:23 65.8 °F 61.5 °F 30.06 in WSW 8.0 mph 14.0 mph 86 % 0.00 in 0 W/m2
02:28 65.7 °F 61.4 °F 30.06 in West 8.0 mph 13.0 mph 86 % 0.00 in 0 W/m2
02:33 65.7 °F 61.4 °F 30.06 in West 6.0 mph 12.0 mph 86 % 0.00 in 0 W/m2
02:38 65.7 °F 61.4 °F 30.06 in West 4.0 mph 9.0 mph 86 % 0.00 in 0 W/m2
02:43 65.5 °F 61.2 °F 30.06 in WSW 4.0 mph 7.0 mph 86 % 0.00 in 0 W/m2
02:49 65.5 °F 61.2 °F 30.06 in WSW 4.0 mph 12.0 mph 86 % 0.00 in 0 W/m2
02:53 65.3 °F 61.0 °F 30.06 in WSW 6.0 mph 13.0 mph 86 % 0.00 in 0 W/m2
02:58 65.1 °F 60.8 °F 30.06 in WSW 7.0 mph 13.0 mph 86 % 0.00 in 0 W/m2
03:04 65.1 °F 60.8 °F 30.06 in WSW 7.0 mph 14.0 mph 86 % 0.00 in 0 W/m2
03:09 64.9 °F 61.0 °F 30.06 in West 7.0 mph 14.0 mph 87 % 0.00 in 0 W/m2
03:13 64.8 °F 60.8 °F 30.06 in West 7.0 mph 12.0 mph 87 % 0.00 in 0 W/m2
03:19 64.6 °F 60.6 °F 30.06 in West 6.0 mph 11.0 mph 87 % 0.00 in 0 W/m2
03:24 64.6 °F 60.9 °F 30.06 in West 5.0 mph 9.0 mph 88 % 0.00 in 0 W/m2
03:29 64.6 °F 60.9 °F 30.06 in West 4.0 mph 8.0 mph 88 % 0.00 in 0 W/m2
03:34 64.6 °F 60.9 °F 30.06 in WSW 4.0 mph 7.0 mph 88 % 0.00 in 0 W/m2
03:39 64.6 °F 60.9 °F 30.06 in West 3.0 mph 7.0 mph 88 % 0.00 in 0 W/m2
03:44 64.6 °F 60.9 °F 30.07 in West 3.0 mph 7.0 mph 88 % 0.00 in 0 W/m2
03:49 64.6 °F 60.9 °F 30.07 in West 3.0 mph 9.0 mph 88 % 0.00 in 0 W/m2
03:54 64.4 °F 60.8 °F 30.07 in WSW 5.0 mph 9.0 mph 88 % 0.00 in 0 W/m2
03:59 64.4 °F 60.8 °F 30.07 in West 5.0 mph 8.0 mph 88 % 0.00 in 0 W/m2
04:04 64.4 °F 60.8 °F 30.07 in West 5.0 mph 9.0 mph 88 % 0.00 in 0 W/m2
04:09 64.2 °F 60.6 °F 30.07 in West 5.0 mph 9.0 mph 88 % 0.00 in 0 W/m2
04:14 64.2 °F 60.6 °F 30.07 in West 6.0 mph 14.0 mph 88 % 0.00 in 0 W/m2
04:19 64.0 °F 60.7 °F 30.07 in West 7.0 mph 14.0 mph 89 % 0.00 in 0 W/m2
04:24 64.0 °F 60.7 °F 30.07 in West 7.0 mph 12.0 mph 89 % 0.00 in 0 W/m2
04:29 63.9 °F 60.6 °F 30.07 in West 7.0 mph 11.0 mph 89 % 0.00 in 0 W/m2
04:34 63.9 °F 60.6 °F 30.07 in West 7.0 mph 11.0 mph 89 % 0.00 in 0 W/m2
04:39 63.7 °F 60.7 °F 30.07 in West 7.0 mph 11.0 mph 90 % 0.00 in 0 W/m2
04:44 63.7 °F 60.7 °F 30.08 in West 6.0 mph 11.0 mph 90 % 0.00 in 0 W/m2
04:49 63.5 °F 60.5 °F 30.08 in West 6.0 mph 9.0 mph 90 % 0.00 in 0 W/m2
04:54 63.5 °F 60.5 °F 30.08 in West 7.0 mph 13.0 mph 90 % 0.00 in 0 W/m2
04:59 63.5 °F 60.5 °F 30.07 in West 8.0 mph 14.0 mph 90 % 0.00 in 0 W/m2
05:04 63.5 °F 60.5 °F 30.07 in West 8.0 mph 14.0 mph 90 % 0.00 in 5 W/m2
05:09 63.7 °F 60.7 °F 30.07 in West 8.0 mph 14.0 mph 90 % 0.00 in 7 W/m2
05:14 63.7 °F 60.7 °F 30.07 in West 9.0 mph 14.0 mph 90 % 0.00 in 9 W/m2
05:15 63.7 °F 60.7 °F 30.07 in West 8.0 mph 14.0 mph 90 % 0.00 in 9 W/m2
05:20 63.7 °F 60.7 °F 30.08 in West 8.0 mph 12.0 mph 90 % 0.00 in 11 W/m2
05:21 63.7 °F 60.7 °F 30.08 in West 8.0 mph 12.0 mph 90 % 0.00 in 11 W/m2
05:26 63.5 °F 60.5 °F 30.07 in West 8.0 mph 12.0 mph 90 % 0.00 in 14 W/m2
05:31 63.5 °F 60.5 °F 30.07 in West 7.0 mph 14.0 mph 90 % 0.00 in 16 W/m2
05:36 63.3 °F 60.3 °F 30.08 in West 7.0 mph 15.0 mph 90 % 0.00 in 16 W/m2
05:41 63.3 °F 60.3 °F 30.08 in West 7.0 mph 15.0 mph 90 % 0.00 in 14 W/m2
05:46 63.3 °F 60.3 °F 30.08 in West 8.0 mph 15.0 mph 90 % 0.00 in 16 W/m2
05:51 63.3 °F 60.3 °F 30.08 in West 9.0 mph 15.0 mph 90 % 0.00 in 16 W/m2
05:56 63.3 °F 60.3 °F 30.08 in West 8.0 mph 15.0 mph 90 % 0.00 in 18 W/m2
06:01 63.3 °F 60.3 °F 30.08 in West 7.0 mph 13.0 mph 90 % 0.00 in 19 W/m2
06:06 63.1 °F 60.2 °F 30.08 in West 6.0 mph 10.0 mph 90 % 0.00 in 30 W/m2
06:11 63.1 °F 60.5 °F 30.08 in West 7.0 mph 12.0 mph 91 % 0.00 in 120 W/m2
06:16 63.3 °F 60.6 °F 30.08 in West 7.0 mph 12.0 mph 91 % 0.00 in 81 W/m2
06:21 63.7 °F 61.0 °F 30.08 in West 7.0 mph 13.0 mph 91 % 0.00 in 90 W/m2
06:26 63.9 °F 60.9 °F 30.08 in West 8.0 mph 13.0 mph 90 % 0.00 in 90 W/m2
06:31 64.2 °F 61.2 °F 30.09 in West 9.0 mph 16.0 mph 90 % 0.00 in 60 W/m2
06:32 64.2 °F 61.2 °F 30.09 in West 10.0 mph 16.0 mph 90 % 0.00 in 65 W/m2
06:37 64.4 °F 61.1 °F 30.09 in West 11.0 mph 16.0 mph 89 % 0.00 in 102 W/m2
06:42 64.8 °F 61.4 °F 30.09 in West 10.0 mph 16.0 mph 89 % 0.00 in 100 W/m2
06:47 64.9 °F 61.3 °F 30.09 in West 10.0 mph 18.0 mph 88 % 0.00 in 121 W/m2
06:52 65.1 °F 61.5 °F 30.09 in West 10.0 mph 18.0 mph 88 % 0.00 in 120 W/m2
06:57 65.3 °F 61.7 °F 30.09 in West 9.0 mph 15.0 mph 88 % 0.00 in 169 W/m2
07:02 65.7 °F 61.7 °F 30.10 in West 8.0 mph 14.0 mph 87 % 0.00 in 165 W/m2
07:07 65.8 °F 61.9 °F 30.10 in West 8.0 mph 14.0 mph 87 % 0.00 in 130 W/m2
07:12 66.0 °F 61.4 °F 30.10 in WNW 9.0 mph 16.0 mph 85 % 0.00 in 128 W/m2
07:17 66.2 °F 61.2 °F 30.11 in WNW 9.0 mph 16.0 mph 84 % 0.00 in 109 W/m2
07:22 66.0 °F 61.0 °F 30.11 in WNW 9.0 mph 16.0 mph 84 % 0.00 in 128 W/m2
07:27 65.8 °F 60.9 °F 30.11 in WNW 10.0 mph 18.0 mph 84 % 0.00 in 127 W/m2
07:32 65.7 °F 60.7 °F 30.11 in West 10.0 mph 18.0 mph 84 % 0.00 in 141 W/m2
07:37 65.5 °F 60.8 °F 30.12 in West 9.0 mph 15.0 mph 85 % 0.00 in 162 W/m2
07:42 65.5 °F 60.8 °F 30.12 in West 9.0 mph 15.0 mph 85 % 0.00 in 113 W/m2
07:47 65.1 °F 60.5 °F 30.11 in West 9.0 mph 15.0 mph 85 % 0.00 in 123 W/m2
07:52 64.9 °F 60.6 °F 30.11 in West 7.0 mph 14.0 mph 86 % 0.00 in 123 W/m2
07:57 64.9 °F 60.6 °F 30.11 in West 6.0 mph 11.0 mph 86 % 0.00 in 114 W/m2
08:02 64.8 °F 60.8 °F 30.12 in WSW 6.0 mph 9.0 mph 87 % 0.00 in 120 W/m2
08:07 64.8 °F 60.8 °F 30.11 in WSW 7.0 mph 11.0 mph 87 % 0.00 in 144 W/m2
08:12 64.8 °F 60.8 °F 30.12 in WSW 7.0 mph 11.0 mph 87 % 0.00 in 181 W/m2
08:17 64.9 °F 61.0 °F 30.12 in West 6.0 mph 10.0 mph 87 % 0.00 in 236 W/m2
08:22 65.3 °F 61.3 °F 30.12 in West 6.0 mph 9.0 mph 87 % 0.00 in 262 W/m2
08:27 65.7 °F 61.4 °F 30.12 in West 6.0 mph 12.0 mph 86 % 0.00 in 255 W/m2
08:32 65.8 °F 61.2 °F 30.12 in West 7.0 mph 12.0 mph 85 % 0.00 in 262 W/m2
08:37 66.4 °F 61.7 °F 30.12 in West 7.0 mph 11.0 mph 85 % 0.00 in 246 W/m2
08:42 66.6 °F 61.2 °F 30.12 in West 8.0 mph 13.0 mph 83 % 0.00 in 264 W/m2
08:47 66.6 °F 61.2 °F 30.13 in West 9.0 mph 15.0 mph 83 % 0.00 in 188 W/m2
08:52 66.6 °F 60.9 °F 30.13 in West 9.0 mph 16.0 mph 82 % 0.00 in 134 W/m2
08:57 66.6 °F 60.9 °F 30.13 in West 9.0 mph 16.0 mph 82 % 0.00 in 111 W/m2
09:02 66.4 °F 60.7 °F 30.13 in West 8.0 mph 16.0 mph 82 % 0.00 in 111 W/m2
09:07 66.4 °F 60.4 °F 30.14 in WNW 9.0 mph 13.0 mph 81 % 0.00 in 135 W/m2
09:12 66.2 °F 60.2 °F 30.14 in WNW 9.0 mph 14.0 mph 81 % 0.00 in 221 W/m2
09:17 66.0 °F 60.4 °F 30.14 in WNW 9.0 mph 14.0 mph 82 % 0.00 in 316 W/m2
09:22 65.8 °F 60.5 °F 30.14 in WNW 9.0 mph 14.0 mph 83 % 0.00 in 322 W/m2
09:27 65.7 °F 60.4 °F 30.14 in WNW 9.0 mph 14.0 mph 83 % 0.00 in 274 W/m2
09:32 65.5 °F 60.2 °F 30.14 in WNW 9.0 mph 14.0 mph 83 % 0.00 in 243 W/m2
09:37 65.5 °F 60.2 °F 30.14 in WNW 9.0 mph 14.0 mph 83 % 0.00 in 315 W/m2
09:42 65.5 °F 59.8 °F 30.14 in WNW 9.0 mph 13.0 mph 82 % 0.00 in 315 W/m2
09:47 65.5 °F 59.8 °F 30.14 in WNW 9.0 mph 13.0 mph 82 % 0.00 in 271 W/m2
09:52 65.7 °F 60.0 °F 30.14 in WNW 9.0 mph 15.0 mph 82 % 0.00 in 299 W/m2
09:57 65.7 °F 60.0 °F 30.15 in WNW 9.0 mph 15.0 mph 82 % 0.00 in 290 W/m2
10:02 65.7 °F 59.3 °F 30.15 in WNW 9.0 mph 15.0 mph 80 % 0.00 in 301 W/m2
10:07 65.7 °F 59.3 °F 30.14 in West 9.0 mph 18.0 mph 80 % 0.00 in 329 W/m2
10:12 65.7 °F 59.0 °F 30.15 in West 10.0 mph 18.0 mph 79 % 0.00 in 390 W/m2
10:17 65.7 °F 58.6 °F 30.15 in West 11.0 mph 19.0 mph 78 % 0.00 in 350 W/m2
10:22 65.8 °F 59.1 °F 30.15 in West 10.0 mph 19.0 mph 79 % 0.00 in 387 W/m2
10:27 66.0 °F 59.0 °F 30.15 in West 10.0 mph 19.0 mph 78 % 0.00 in 288 W/m2
10:32 66.2 °F 58.4 °F 30.15 in West 11.0 mph 20.0 mph 76 % 0.00 in 499 W/m2
10:37 66.7 °F 58.6 °F 30.15 in WNW 12.0 mph 20.0 mph 75 % 0.00 in 387 W/m2
10:42 66.9 °F 58.0 °F 30.16 in WNW 12.0 mph 20.0 mph 73 % 0.00 in 362 W/m2
10:47 67.3 °F 58.3 °F 30.16 in WNW 12.0 mph 20.0 mph 73 % 0.00 in 385 W/m2
10:52 67.5 °F 58.5 °F 30.15 in WNW 9.0 mph 18.0 mph 73 % 0.00 in 619 W/m2
10:57 67.6 °F 58.3 °F 30.16 in WNW 9.0 mph 18.0 mph 72 % 0.00 in 371 W/m2
11:03 67.5 °F 58.1 °F 30.16 in WNW 10.0 mph 18.0 mph 72 % 0.00 in 332 W/m2
11:08 67.3 °F 58.3 °F 30.16 in WNW 10.0 mph 16.0 mph 73 % 0.00 in 457 W/m2
11:13 67.3 °F 57.9 °F 30.16 in WNW 10.0 mph 20.0 mph 72 % 0.00 in 615 W/m2
11:18 67.3 °F 57.6 °F 30.16 in WNW 11.0 mph 20.0 mph 71 % 0.00 in 664 W/m2
11:23 67.3 °F 57.6 °F 30.16 in WNW 11.0 mph 18.0 mph 71 % 0.00 in 461 W/m2
11:28 67.5 °F 57.7 °F 30.16 in WNW 10.0 mph 18.0 mph 71 % 0.00 in 531 W/m2
11:33 67.6 °F 57.5 °F 30.16 in WNW 11.0 mph 19.0 mph 70 % 0.00 in 429 W/m2
11:38 68.2 °F 57.6 °F 30.16 in WNW 11.0 mph 19.0 mph 69 % 0.00 in 589 W/m2
11:43 68.4 °F 57.4 °F 30.16 in West 10.0 mph 18.0 mph 68 % 0.00 in 476 W/m2
11:48 68.4 °F 57.4 °F 30.16 in West 10.0 mph 18.0 mph 68 % 0.00 in 1100 W/m2
11:53 68.5 °F 57.6 °F 30.16 in West 10.0 mph 20.0 mph 68 % 0.00 in 304 W/m2
11:58 69.1 °F 57.2 °F 30.17 in WNW 10.0 mph 20.0 mph 66 % 0.00 in 912 W/m2
12:03 69.4 °F 56.3 °F 30.16 in WNW 11.0 mph 20.0 mph 63 % 0.00 in 925 W/m2
12:08 69.6 °F 56.9 °F 30.16 in WNW 11.0 mph 20.0 mph 64 % 0.00 in 960 W/m2
12:13 70.2 °F 57.0 °F 30.16 in WNW 10.0 mph 19.0 mph 63 % 0.00 in 889 W/m2
12:18 70.5 °F 56.9 °F 30.16 in WNW 10.0 mph 18.0 mph 62 % 0.00 in 891 W/m2
12:23 70.9 °F 56.3 °F 30.17 in WNW 11.0 mph 21.0 mph 60 % 0.00 in 895 W/m2
12:28 70.5 °F 56.0 °F 30.17 in WNW 12.0 mph 22.0 mph 60 % 0.00 in 895 W/m2
12:33 70.5 °F 56.0 °F 30.17 in West 13.0 mph 22.0 mph 60 % 0.00 in 893 W/m2
12:38 70.7 °F 56.1 °F 30.17 in West 12.0 mph 20.0 mph 60 % 0.00 in 907 W/m2
12:43 70.9 °F 56.3 °F 30.17 in WNW 11.0 mph 19.0 mph 60 % 0.00 in 898 W/m2
12:48 71.1 °F 56.0 °F 30.17 in WNW 11.0 mph 19.0 mph 59 % 0.00 in 965 W/m2
12:53 71.2 °F 56.6 °F 30.17 in West 12.0 mph 19.0 mph 60 % 0.00 in 986 W/m2
12:58 71.2 °F 56.2 °F 30.17 in West 12.0 mph 20.0 mph 59 % 0.00 in 888 W/m2
13:03 71.4 °F 56.8 °F 30.17 in West 12.0 mph 20.0 mph 60 % 0.00 in 954 W/m2
13:08 71.8 °F 56.2 °F 30.17 in WNW 11.0 mph 19.0 mph 58 % 0.00 in 921 W/m2
13:13 72.1 °F 57.0 °F 30.17 in WNW 10.0 mph 19.0 mph 59 % 0.00 in 900 W/m2
13:18 72.1 °F 56.1 °F 30.17 in WNW 10.0 mph 16.0 mph 57 % 0.00 in 896 W/m2
13:23 72.1 °F 55.6 °F 30.17 in West 10.0 mph 16.0 mph 56 % 0.00 in 896 W/m2
13:28 72.0 °F 55.4 °F 30.17 in West 10.0 mph 16.0 mph 56 % 0.00 in 891 W/m2
13:33 72.1 °F 55.6 °F 30.17 in WNW 10.0 mph 16.0 mph 56 % 0.00 in 895 W/m2
13:38 72.1 °F 55.1 °F 30.17 in WNW 10.0 mph 16.0 mph 55 % 0.00 in 893 W/m2
13:43 72.1 °F 55.6 °F 30.17 in WNW 10.0 mph 16.0 mph 56 % 0.00 in 896 W/m2
13:48 72.5 °F 55.4 °F 30.17 in WNW 10.0 mph 16.0 mph 55 % 0.00 in 891 W/m2
13:53 72.7 °F 55.6 °F 30.17 in WNW 10.0 mph 18.0 mph 55 % 0.00 in 889 W/m2
13:58 72.7 °F 55.1 °F 30.17 in WNW 10.0 mph 20.0 mph 54 % 0.00 in 886 W/m2
14:03 72.9 °F 54.7 °F 30.17 in West 10.0 mph 20.0 mph 53 % 0.00 in 886 W/m2
14:08 72.9 °F 54.2 °F 30.17 in West 11.0 mph 19.0 mph 52 % 0.00 in 884 W/m2
14:13 72.9 °F 54.2 °F 30.17 in West 10.0 mph 19.0 mph 52 % 0.00 in 877 W/m2
14:18 73.2 °F 54.5 °F 30.17 in West 9.0 mph 18.0 mph 52 % 0.00 in 870 W/m2
14:23 73.2 °F 55.1 °F 30.17 in WNW 9.0 mph 18.0 mph 53 % 0.00 in 868 W/m2
14:28 73.2 °F 54.0 °F 30.17 in WNW 9.0 mph 20.0 mph 51 % 0.00 in 868 W/m2
14:33 73.4 °F 54.2 °F 30.17 in WNW 9.0 mph 20.0 mph 51 % 0.00 in 861 W/m2
14:38 73.6 °F 53.2 °F 30.17 in WNW 9.0 mph 18.0 mph 49 % 0.00 in 858 W/m2
14:44 73.6 °F 53.2 °F 30.17 in WNW 9.0 mph 19.0 mph 49 % 0.00 in 856 W/m2
14:49 73.4 °F 53.1 °F 30.17 in WNW 10.0 mph 19.0 mph 49 % 0.00 in 847 W/m2
14:54 73.2 °F 52.3 °F 30.17 in WNW 10.0 mph 20.0 mph 48 % 0.00 in 842 W/m2
14:59 73.2 °F 52.9 °F 30.18 in West 11.0 mph 20.0 mph 49 % 0.00 in 838 W/m2
15:04 73.2 °F 53.5 °F 30.17 in West 11.0 mph 19.0 mph 50 % 0.00 in 828 W/m2
15:09 73.6 °F 53.2 °F 30.18 in WNW 10.0 mph 19.0 mph 49 % 0.00 in 830 W/m2
15:14 73.6 °F 53.2 °F 30.18 in WNW 9.0 mph 19.0 mph 49 % 0.00 in 821 W/m2
15:19 73.9 °F 53.6 °F 30.18 in WNW 9.0 mph 19.0 mph 49 % 0.00 in 812 W/m2
15:24 73.8 °F 52.3 °F 30.18 in WNW 10.0 mph 16.0 mph 47 % 0.00 in 803 W/m2
15:29 73.6 °F 52.7 °F 30.18 in WNW 10.0 mph 19.0 mph 48 % 0.00 in 798 W/m2
15:34 73.6 °F 52.1 °F 30.18 in WNW 9.0 mph 19.0 mph 47 % 0.00 in 779 W/m2
15:39 73.6 °F 52.1 °F 30.18 in NW 9.0 mph 18.0 mph 47 % 0.00 in 798 W/m2
15:44 73.6 °F 52.7 °F 30.18 in WNW 9.0 mph 18.0 mph 48 % 0.00 in 784 W/m2
15:49 73.6 °F 52.1 °F 30.18 in WNW 10.0 mph 18.0 mph 47 % 0.00 in 714 W/m2
15:54 73.2 °F 51.8 °F 30.18 in WNW 10.0 mph 18.0 mph 47 % 0.00 in 780 W/m2
15:59 73.4 °F 52.5 °F 30.18 in WNW 9.0 mph 18.0 mph 48 % 0.00 in 654 W/m2
16:04 73.4 °F 51.9 °F 30.18 in WNW 8.0 mph 16.0 mph 47 % 0.00 in 744 W/m2
16:09 73.4 °F 52.5 °F 30.18 in WNW 9.0 mph 18.0 mph 48 % 0.00 in 758 W/m2
16:14 73.2 °F 52.3 °F 30.18 in WNW 9.0 mph 18.0 mph 48 % 0.00 in 708 W/m2
16:19 73.2 °F 52.3 °F 30.18 in NW 9.0 mph 16.0 mph 48 % 0.00 in 687 W/m2
16:24 73.2 °F 51.8 °F 30.18 in WNW 9.0 mph 18.0 mph 47 % 0.00 in 621 W/m2
16:29 73.2 °F 52.3 °F 30.18 in WNW 9.0 mph 18.0 mph 48 % 0.00 in 715 W/m2
16:34 72.9 °F 51.4 °F 30.18 in WNW 10.0 mph 18.0 mph 47 % 0.00 in 561 W/m2
16:39 72.7 °F 51.3 °F 30.18 in WNW 11.0 mph 18.0 mph 47 % 0.00 in 582 W/m2
16:44 72.5 °F 52.2 °F 30.18 in WNW 10.0 mph 16.0 mph 49 % 0.00 in 538 W/m2
16:49 72.3 °F 52.6 °F 30.18 in WNW 9.0 mph 14.0 mph 50 % 0.00 in 527 W/m2
16:54 72.0 °F 52.3 °F 30.19 in WNW 9.0 mph 18.0 mph 50 % 0.00 in 443 W/m2
16:59 71.8 °F 52.7 °F 30.19 in WNW 10.0 mph 18.0 mph 51 % 0.00 in 494 W/m2
17:05 71.4 °F 52.3 °F 30.19 in WNW 10.0 mph 18.0 mph 51 % 0.00 in 571 W/m2
17:10 71.4 °F 52.9 °F 30.19 in WNW 9.0 mph 18.0 mph 52 % 0.00 in 686 W/m2
17:15 71.6 °F 52.5 °F 30.19 in WNW 9.0 mph 18.0 mph 51 % 0.00 in 374 W/m2
17:20 71.8 °F 52.1 °F 30.19 in WNW 10.0 mph 16.0 mph 50 % 0.00 in 506 W/m2
17:25 71.4 °F 52.3 °F 30.19 in WNW 10.0 mph 16.0 mph 51 % 0.00 in 455 W/m2
17:30 70.9 °F 51.8 °F 30.19 in West 10.0 mph 15.0 mph 51 % 0.00 in 269 W/m2
17:35 70.5 °F 52.6 °F 30.19 in West 8.0 mph 12.0 mph 53 % 0.00 in 315 W/m2
17:40 70.2 °F 52.2 °F 30.19 in West 8.0 mph 13.0 mph 53 % 0.00 in 362 W/m2
17:45 70.0 °F 52.6 °F 30.19 in WNW 8.0 mph 14.0 mph 54 % 0.00 in 475 W/m2
17:50 70.2 °F 52.2 °F 30.19 in WNW 8.0 mph 14.0 mph 53 % 0.00 in 371 W/m2
17:55 70.0 °F 52.1 °F 30.19 in WNW 9.0 mph 14.0 mph 53 % 0.00 in 253 W/m2
18:00 69.6 °F 51.2 °F 30.19 in WNW 10.0 mph 16.0 mph 52 % 0.00 in 338 W/m2
18:05 69.6 °F 51.7 °F 30.19 in WNW 9.0 mph 16.0 mph 53 % 0.00 in 267 W/m2
18:10 69.4 °F 52.1 °F 30.19 in WNW 8.0 mph 15.0 mph 54 % 0.00 in 206 W/m2
18:15 69.1 °F 51.2 °F 30.19 in NW 8.0 mph 14.0 mph 53 % 0.00 in 343 W/m2
18:20 68.4 °F 50.6 °F 30.19 in NW 9.0 mph 18.0 mph 53 % 0.00 in 197 W/m2
18:25 67.6 °F 50.4 °F 30.19 in NW 9.0 mph 18.0 mph 54 % 0.00 in 142 W/m2
18:30 67.1 °F 50.4 °F 30.20 in NW 10.0 mph 18.0 mph 55 % 0.00 in 120 W/m2
18:35 66.7 °F 50.5 °F 30.19 in WNW 9.0 mph 16.0 mph 56 % 0.00 in 111 W/m2
18:40 66.4 °F 50.7 °F 30.20 in WNW 8.0 mph 16.0 mph 57 % 0.00 in 142 W/m2
18:45 66.0 °F 50.3 °F 30.20 in WNW 8.0 mph 15.0 mph 57 % 0.00 in 127 W/m2
18:50 65.8 °F 50.2 °F 30.20 in WNW 8.0 mph 16.0 mph 57 % 0.00 in 192 W/m2
18:56 65.8 °F 50.6 °F 30.20 in WNW 8.0 mph 16.0 mph 58 % 0.00 in 172 W/m2
19:00 65.8 °F 50.6 °F 30.20 in WNW 7.0 mph 16.0 mph 58 % 0.00 in 132 W/m2
19:06 65.7 °F 50.5 °F 30.19 in WNW 9.0 mph 16.0 mph 58 % 0.00 in 111 W/m2
19:11 65.5 °F 50.3 °F 30.20 in WNW 9.0 mph 16.0 mph 58 % 0.00 in 113 W/m2
19:16 65.3 °F 50.6 °F 30.20 in WNW 7.0 mph 14.0 mph 59 % 0.00 in 123 W/m2
19:21 65.1 °F 49.5 °F 30.20 in WNW 9.0 mph 20.0 mph 57 % 0.00 in 137 W/m2
19:26 64.9 °F 49.8 °F 30.20 in WNW 10.0 mph 20.0 mph 58 % 0.00 in 153 W/m2
19:31 64.9 °F 49.8 °F 30.20 in WNW 8.0 mph 15.0 mph 58 % 0.00 in 128 W/m2
19:36 64.9 °F 49.8 °F 30.20 in WNW 8.0 mph 14.0 mph 58 % 0.00 in 127 W/m2
19:41 64.8 °F 49.6 °F 30.20 in WNW 9.0 mph 14.0 mph 58 % 0.00 in 109 W/m2
19:46 64.6 °F 49.9 °F 30.20 in WNW 8.0 mph 14.0 mph 59 % 0.00 in 93 W/m2
19:51 64.4 °F 50.2 °F 30.20 in WNW 7.0 mph 13.0 mph 60 % 0.00 in 91 W/m2
19:56 64.2 °F 50.5 °F 30.20 in WNW 7.0 mph 13.0 mph 61 % 0.00 in 90 W/m2
20:01 64.2 °F 50.5 °F 30.20 in WNW 6.0 mph 13.0 mph 61 % 0.00 in 76 W/m2
20:06 64.0 °F 50.8 °F 30.20 in WNW 7.0 mph 13.0 mph 62 % 0.00 in 74 W/m2
20:11 63.9 °F 50.6 °F 30.20 in WNW 8.0 mph 14.0 mph 62 % 0.00 in 67 W/m2
20:16 63.7 °F 50.4 °F 30.20 in WNW 8.0 mph 14.0 mph 62 % 0.00 in 58 W/m2
20:21 63.3 °F 50.1 °F 30.21 in WNW 8.0 mph 13.0 mph 62 % 0.00 in 56 W/m2
20:26 63.1 °F 50.3 °F 30.21 in WNW 7.0 mph 13.0 mph 63 % 0.00 in 53 W/m2
20:31 63.0 °F 50.2 °F 30.21 in WNW 7.0 mph 14.0 mph 63 % 0.00 in 44 W/m2
20:36 63.0 °F 50.6 °F 30.21 in WNW 7.0 mph 14.0 mph 64 % 0.00 in 37 W/m2
20:41 62.8 °F 50.4 °F 30.21 in WNW 7.0 mph 15.0 mph 64 % 0.00 in 32 W/m2
20:46 62.4 °F 50.5 °F 30.21 in WNW 7.0 mph 15.0 mph 65 % 0.00 in 32 W/m2
20:51 62.2 °F 50.3 °F 30.22 in NW 6.0 mph 10.0 mph 65 % 0.00 in 30 W/m2
20:56 61.9 °F 50.4 °F 30.21 in NW 6.0 mph 12.0 mph 66 % 0.00 in 26 W/m2
21:01 61.7 °F 50.2 °F 30.21 in WNW 7.0 mph 12.0 mph 66 % 0.00 in 21 W/m2
21:06 61.5 °F 50.5 °F 30.22 in WNW 7.0 mph 12.0 mph 67 % 0.00 in 18 W/m2
21:11 61.3 °F 50.3 °F 30.22 in WNW 6.0 mph 12.0 mph 67 % 0.00 in 14 W/m2
21:16 61.0 °F 50.3 °F 30.22 in WNW 6.0 mph 12.0 mph 68 % 0.00 in 12 W/m2
21:21 60.6 °F 50.0 °F 30.22 in NW 7.0 mph 12.0 mph 68 % 0.00 in 11 W/m2
21:26 60.4 °F 50.2 °F 30.22 in NW 7.0 mph 12.0 mph 69 % 0.00 in 7 W/m2
21:31 60.3 °F 50.0 °F 30.22 in NW 6.0 mph 11.0 mph 69 % 0.00 in 5 W/m2
21:36 60.1 °F 50.3 °F 30.22 in NW 7.0 mph 16.0 mph 70 % 0.00 in 0 W/m2
21:41 59.7 °F 49.9 °F 30.22 in WNW 8.0 mph 16.0 mph 70 % 0.00 in 0 W/m2
21:46 59.7 °F 49.9 °F 30.22 in WNW 9.0 mph 16.0 mph 70 % 0.00 in 0 W/m2
21:51 59.5 °F 50.1 °F 30.22 in NW 8.0 mph 16.0 mph 71 % 0.00 in 0 W/m2
21:56 59.4 °F 50.0 °F 30.21 in WNW 9.0 mph 14.0 mph 71 % 0.00 in 0 W/m2
22:01 59.2 °F 50.2 °F 30.22 in WNW 10.0 mph 14.0 mph 72 % 0.00 in 0 W/m2
22:06 59.0 °F 50.0 °F 30.22 in WNW 8.0 mph 13.0 mph 72 % 0.00 in 0 W/m2
22:11 58.8 °F 50.2 °F 30.22 in WNW 8.0 mph 14.0 mph 73 % 0.00 in 0 W/m2
22:16 58.6 °F 50.0 °F 30.22 in WNW 7.0 mph 14.0 mph 73 % 0.00 in 0 W/m2
22:21 58.5 °F 49.8 °F 30.22 in WNW 6.0 mph 12.0 mph 73 % 0.00 in 0 W/m2
22:27 58.3 °F 50.0 °F 30.22 in WNW 6.0 mph 11.0 mph 74 % 0.00 in 0 W/m2
22:32 58.3 °F 50.0 °F 30.22 in WNW 7.0 mph 11.0 mph 74 % 0.00 in 0 W/m2
22:37 57.9 °F 49.7 °F 30.22 in WNW 6.0 mph 10.0 mph 74 % 0.00 in 0 W/m2
22:42 57.7 °F 49.9 °F 30.22 in WNW 5.0 mph 8.0 mph 75 % 0.00 in 0 W/m2
22:47 57.7 °F 49.9 °F 30.22 in WNW 5.0 mph 8.0 mph 75 % 0.00 in 0 W/m2
22:53 57.6 °F 50.0 °F 30.22 in WNW 5.0 mph 10.0 mph 76 % 0.00 in 0 W/m2
22:58 57.4 °F 49.9 °F 30.22 in WNW 6.0 mph 13.0 mph 76 % 0.00 in 0 W/m2
23:03 57.2 °F 49.7 °F 30.22 in WNW 7.0 mph 13.0 mph 76 % 0.00 in 0 W/m2
23:08 57.2 °F 50.1 °F 30.23 in WNW 7.0 mph 12.0 mph 77 % 0.00 in 0 W/m2
23:13 57.0 °F 49.5 °F 30.23 in WNW 7.0 mph 12.0 mph 76 % 0.00 in 0 W/m2
23:18 57.0 °F 49.9 °F 30.23 in WNW 7.0 mph 12.0 mph 77 % 0.00 in 0 W/m2
23:23 56.8 °F 49.7 °F 30.23 in WNW 7.0 mph 10.0 mph 77 % 0.00 in 0 W/m2
23:28 56.8 °F 49.7 °F 30.23 in WNW 6.0 mph 10.0 mph 77 % 0.00 in 0 W/m2
23:33 56.7 °F 49.5 °F 30.23 in WNW 6.0 mph 8.0 mph 77 % 0.00 in 0 W/m2
23:38 56.5 °F 49.7 °F 30.22 in WNW 6.0 mph 8.0 mph 78 % 0.00 in 0 W/m2
23:43 56.5 °F 49.7 °F 30.22 in WNW 6.0 mph 9.0 mph 78 % 0.00 in 0 W/m2
23:48 56.3 °F 49.5 °F 30.23 in WNW 5.0 mph 9.0 mph 78 % 0.00 in 0 W/m2
23:53 56.1 °F 49.4 °F 30.23 in WNW 4.0 mph 7.0 mph 78 % 0.00 in 0 W/m2
23:58 55.9 °F 49.5 °F 30.23 in WNW 4.0 mph 6.0 mph 79 % 0.00 in 0 W/m2
Delerius-Weather
Compliments of Weather Underground - 2.25 mb

Data updates at regular intervals.